createdAt,value
2022-12-16T00:01:07.938Z,100615.59
2022-12-16T00:03:37.083Z,100609.41
2022-12-16T00:06:04.926Z,100605.88
2022-12-16T00:08:33.710Z,100604.94
2022-12-16T00:11:01.903Z,100603.19
2022-12-16T00:13:32.465Z,100605.88
2022-12-16T00:16:00.726Z,100608.53
2022-12-16T00:18:28.368Z,100592.47
2022-12-16T00:20:56.397Z,100605.88
2022-12-16T00:23:24.133Z,100612.16
2022-12-16T00:25:52.001Z,100608.59
2022-12-16T00:28:23.307Z,100614.00
2022-12-16T00:30:53.062Z,100601.53
2022-12-16T00:33:24.550Z,100606.88
2022-12-16T00:35:52.529Z,100599.81
2022-12-16T00:38:21.425Z,100616.75
2022-12-16T00:40:49.132Z,100608.78
2022-12-16T00:43:17.014Z,100603.41
2022-12-16T00:45:44.625Z,100616.84
2022-12-16T00:48:13.972Z,100616.84
2022-12-16T00:50:41.943Z,100613.31
2022-12-16T00:53:09.776Z,100621.34
2022-12-16T00:55:37.296Z,100611.50
2022-12-16T00:58:04.960Z,100615.97
2022-12-16T01:00:32.550Z,100608.00
2022-12-16T01:03:00.388Z,100620.50
2022-12-16T01:05:29.403Z,100610.66
2022-12-16T01:07:57.274Z,100617.88
2022-12-16T01:10:25.765Z,100617.88
2022-12-16T01:12:53.416Z,100615.19
2022-12-16T01:15:22.847Z,100614.31
2022-12-16T01:17:50.480Z,100621.50
2022-12-16T01:20:18.270Z,100626.88
2022-12-16T01:22:47.391Z,100630.47
2022-12-16T01:25:15.433Z,100625.13
2022-12-16T01:27:43.012Z,100624.22
2022-12-16T01:30:11.528Z,100636.75
2022-12-16T01:32:39.128Z,100640.31
2022-12-16T01:35:18.109Z,100637.66
2022-12-16T01:37:56.140Z,100643.91
2022-12-16T01:40:25.655Z,100643.03
2022-12-16T01:42:53.265Z,100647.50
2022-12-16T01:45:30.691Z,100644.81
2022-12-16T01:48:00.039Z,100648.44
2022-12-16T01:50:29.552Z,100655.63
2022-12-16T01:53:01.231Z,100652.94
2022-12-16T01:55:30.949Z,100651.19
2022-12-16T01:58:00.668Z,100655.66
2022-12-16T02:00:28.218Z,100652.16
2022-12-16T02:02:56.716Z,100656.63
2022-12-16T02:05:24.942Z,100647.72
2022-12-16T02:07:55.977Z,100651.31
2022-12-16T02:10:28.876Z,100653.94
2022-12-16T02:13:00.412Z,100648.59
2022-12-16T02:15:36.763Z,100654.84
2022-12-16T02:18:10.569Z,100659.31
2022-12-16T02:20:47.809Z,100659.31
2022-12-16T02:23:32.100Z,100659.31
2022-12-16T02:26:12.335Z,100660.19
2022-12-16T02:28:46.611Z,100655.66
2022-12-16T02:31:20.475Z,100654.75
2022-12-16T02:33:53.472Z,100659.22
2022-12-16T02:36:26.507Z,100656.56
2022-12-16T02:38:57.935Z,100663.69
2022-12-16T02:41:29.286Z,100662.91
2022-12-16T02:43:59.642Z,100665.59
2022-12-16T02:46:30.159Z,100665.59
2022-12-16T02:48:57.889Z,100659.34
2022-12-16T02:51:27.158Z,100666.50
2022-12-16T02:53:56.650Z,100667.38
2022-12-16T02:56:31.549Z,100672.78
2022-12-16T02:59:07.348Z,100663.88
2022-12-16T03:01:40.715Z,100669.28
2022-12-16T03:04:11.986Z,100667.53
2022-12-16T03:06:42.071Z,100666.66
2022-12-16T03:09:12.095Z,100671.19
2022-12-16T03:11:42.980Z,100670.31
2022-12-16T03:14:13.586Z,100672.13
2022-12-16T03:16:43.102Z,100671.28
2022-12-16T03:19:12.517Z,100667.75
2022-12-16T03:21:44.869Z,100665.97
2022-12-16T03:24:13.816Z,100670.50
2022-12-16T03:26:44.715Z,100679.41
2022-12-16T03:29:15.392Z,100684.75
2022-12-16T03:31:47.649Z,100681.28
2022-12-16T03:34:17.708Z,100686.69
2022-12-16T03:36:48.775Z,100689.38
2022-12-16T03:39:16.672Z,100687.59
2022-12-16T03:41:44.889Z,100684.94
2022-12-16T03:44:13.029Z,100694.75
2022-12-16T03:46:40.887Z,100687.69
2022-12-16T03:49:09.898Z,100685.94
2022-12-16T03:51:37.586Z,100685.94
2022-12-16T03:54:05.314Z,100694.94
2022-12-16T03:56:32.961Z,100692.28
2022-12-16T03:59:00.866Z,100694.97
2022-12-16T04:01:28.793Z,100695.88
2022-12-16T04:03:56.586Z,100689.72
2022-12-16T04:06:25.576Z,100697.72
2022-12-16T04:08:53.313Z,100688.81
2022-12-16T04:11:38.150Z,100687.94
2022-12-16T04:14:23.376Z,100694.22
2022-12-16T04:17:08.679Z,100696.97
2022-12-16T04:19:55.713Z,100702.34
2022-12-16T04:22:39.959Z,100705.03
2022-12-16T04:25:09.145Z,100703.28
2022-12-16T04:27:36.858Z,100694.34
2022-12-16T04:30:20.380Z,100706.84
2022-12-16T04:33:07.080Z,100714.00
2022-12-16T04:35:52.221Z,100714.00
2022-12-16T04:38:38.720Z,100725.56
2022-12-16T04:41:23.856Z,100729.13
2022-12-16T04:44:09.011Z,100728.22
2022-12-16T04:46:54.571Z,100731.75
2022-12-16T04:49:39.811Z,100729.09
2022-12-16T04:52:25.059Z,100735.22
2022-12-16T04:55:11.625Z,100736.13
2022-12-16T04:57:56.704Z,100724.53
2022-12-16T05:00:41.854Z,100735.22
2022-12-16T05:03:38.833Z,100735.19
2022-12-16T05:06:23.997Z,100732.53
2022-12-16T05:09:09.022Z,100739.66
2022-12-16T05:11:55.749Z,100747.75
2022-12-16T05:14:40.902Z,100745.13
2022-12-16T05:17:26.282Z,100756.75
2022-12-16T05:20:11.133Z,100750.50
2022-12-16T05:22:56.190Z,100750.53
2022-12-16T05:25:41.184Z,100756.81
2022-12-16T05:28:28.690Z,100758.63
2022-12-16T05:31:14.020Z,100765.78
2022-12-16T05:33:58.889Z,100769.34
2022-12-16T05:36:55.290Z,100778.28
2022-12-16T05:39:40.405Z,100785.38
2022-12-16T05:42:25.550Z,100780.97
2022-12-16T05:45:12.301Z,100790.75
2022-12-16T05:47:58.244Z,100800.53
2022-12-16T05:50:43.230Z,100793.38
2022-12-16T05:53:34.513Z,100813.88
2022-12-16T05:56:19.622Z,100806.72
2022-12-16T05:59:05.198Z,100812.06
2022-12-16T06:01:52.105Z,100820.97
2022-12-16T06:04:37.279Z,100820.06
2022-12-16T06:07:22.585Z,100826.25
2022-12-16T06:10:07.759Z,100836.94
2022-12-16T06:12:53.090Z,100845.81
2022-12-16T06:15:38.112Z,100836.03
2022-12-16T06:18:24.898Z,100832.44
2022-12-16T06:21:10.159Z,100833.31
2022-12-16T06:23:55.263Z,100836.00
2022-12-16T06:26:40.256Z,100819.06
2022-12-16T06:29:23.720Z,100824.41
2022-12-16T06:32:05.320Z,100837.75
2022-12-16T06:34:51.792Z,100835.94
2022-12-16T06:37:36.903Z,100842.19
2022-12-16T06:40:22.067Z,100848.41
2022-12-16T06:43:07.118Z,100846.59
2022-12-16T06:45:52.120Z,100849.28
2022-12-16T06:48:37.336Z,100853.75
2022-12-16T06:51:24.202Z,100855.50
2022-12-16T06:54:09.442Z,100863.53
2022-12-16T06:56:54.465Z,100868.03
2022-12-16T06:59:39.373Z,100871.63
2022-12-16T07:02:27.075Z,100875.16
2022-12-16T07:05:12.537Z,100873.41
2022-12-16T07:08:05.016Z,100868.97
2022-12-16T07:10:50.255Z,100878.84
2022-12-16T07:13:35.670Z,100891.41
2022-12-16T07:16:20.691Z,100909.25
2022-12-16T07:19:05.695Z,100920.00
2022-12-16T07:21:47.211Z,100914.66
2022-12-16T07:24:33.751Z,100919.09
2022-12-16T07:27:19.035Z,100924.44
2022-12-16T07:30:04.046Z,100927.13
2022-12-16T07:32:49.330Z,100929.78
2022-12-16T07:35:34.597Z,100936.03
2022-12-16T07:38:19.018Z,100942.25
2022-12-16T07:41:06.020Z,100952.94
2022-12-16T07:43:51.203Z,100960.03
2022-12-16T07:46:36.285Z,100954.69
2022-12-16T07:49:21.324Z,100952.88
2022-12-16T07:52:06.244Z,100958.22
2022-12-16T07:54:51.371Z,100960.91
2022-12-16T07:57:38.017Z,100961.78
2022-12-16T08:00:23.494Z,100961.78
2022-12-16T08:03:10.805Z,100968.91
2022-12-16T08:05:56.047Z,100976.88
2022-12-16T08:08:41.191Z,100983.13
2022-12-16T08:11:26.516Z,100983.97
2022-12-16T08:14:13.157Z,100988.41
2022-12-16T08:16:58.595Z,100992.00
2022-12-16T08:19:43.913Z,100994.63
2022-12-16T08:22:29.408Z,100999.03
2022-12-16T08:25:14.448Z,100994.56
2022-12-16T08:27:59.814Z,101012.41
2022-12-16T08:30:46.262Z,101002.53
2022-12-16T08:33:32.025Z,101006.97
2022-12-16T08:36:17.565Z,101006.06
2022-12-16T08:39:02.560Z,101009.59
2022-12-16T08:41:47.867Z,101010.41
2022-12-16T08:44:32.984Z,101012.16
2022-12-16T08:47:19.474Z,101021.06
2022-12-16T08:50:04.582Z,101021.88
2022-12-16T08:52:49.788Z,101019.97
2022-12-16T08:55:35.095Z,101033.28
2022-12-16T08:58:20.175Z,101034.09
2022-12-16T09:01:07.786Z,101036.63
2022-12-16T09:03:54.876Z,101050.72
2022-12-16T09:06:41.137Z,101053.28
2022-12-16T09:09:26.639Z,101061.16
2022-12-16T09:12:11.770Z,101061.03
2022-12-16T09:14:56.976Z,101061.72
2022-12-16T09:17:42.180Z,101065.09
2022-12-16T09:20:28.884Z,101074.75
2022-12-16T09:23:14.263Z,101073.69
2022-12-16T09:25:59.326Z,101077.09
2022-12-16T09:28:44.522Z,101074.34
2022-12-16T09:31:29.725Z,101075.97
2022-12-16T09:34:14.679Z,101080.28
2022-12-16T09:37:03.254Z,101080.16
2022-12-16T09:39:48.359Z,101081.75
2022-12-16T09:42:39.602Z,101089.56
2022-12-16T09:45:26.326Z,101089.31
2022-12-16T09:48:16.757Z,101093.59
2022-12-16T09:51:03.090Z,101096.91
2022-12-16T09:53:53.051Z,101095.78
2022-12-16T09:56:41.221Z,101101.78
2022-12-16T09:59:29.964Z,101099.72
2022-12-16T10:02:15.606Z,101090.53
2022-12-16T10:05:01.643Z,101095.69
2022-12-16T10:07:49.736Z,101099.94
2022-12-16T10:10:44.320Z,101097.91
2022-12-16T10:13:36.770Z,101095.91
2022-12-16T10:16:27.152Z,101109.13
2022-12-16T10:19:16.841Z,101108.03
2022-12-16T10:22:06.827Z,101107.00
2022-12-16T10:24:56.819Z,101111.31
2022-12-16T10:27:48.822Z,101113.00
2022-12-16T10:30:34.268Z,101116.44
2022-12-16T10:33:20.563Z,101114.44
2022-12-16T10:36:08.043Z,101117.88
2022-12-16T10:38:56.797Z,101121.28
2022-12-16T10:41:43.979Z,101124.69
2022-12-16T10:44:37.158Z,101129.88
2022-12-16T10:47:22.491Z,101127.00
2022-12-16T10:50:09.787Z,101118.78
2022-12-16T10:53:02.031Z,101129.41
2022-12-16T10:55:53.439Z,101131.03
2022-12-16T10:58:41.857Z,101125.50
2022-12-16T11:01:40.292Z,101122.69
2022-12-16T11:04:44.447Z,101117.19
2022-12-16T11:07:41.569Z,101116.13
2022-12-16T11:10:42.607Z,101124.97
2022-12-16T11:13:31.254Z,101128.34
2022-12-16T11:16:24.526Z,101124.69
2022-12-16T11:19:10.944Z,101133.41
2022-12-16T11:21:56.162Z,101130.59
2022-12-16T11:24:41.387Z,101130.41
2022-12-16T11:27:31.879Z,101136.56
2022-12-16T11:30:18.273Z,101134.63
2022-12-16T11:33:05.089Z,101136.28
2022-12-16T11:35:52.378Z,101142.41
2022-12-16T11:38:39.885Z,101141.41
2022-12-16T11:41:26.004Z,101142.19
2022-12-16T11:44:12.183Z,101147.41
2022-12-16T11:46:57.418Z,101143.78
2022-12-16T11:49:45.698Z,101141.06
2022-12-16T11:52:37.796Z,101142.75
2022-12-16T11:55:56.063Z,101146.31
2022-12-16T11:58:37.030Z,101147.19
2022-12-16T12:01:28.293Z,101145.44
2022-12-16T12:04:13.877Z,101143.69
2022-12-16T12:07:11.229Z,101153.56
2022-12-16T12:10:00.277Z,101152.75
2022-12-16T12:12:50.972Z,101143.94
2022-12-16T12:15:40.672Z,101158.31
2022-12-16T12:18:32.451Z,101149.41
2022-12-16T12:21:22.945Z,101142.34
2022-12-16T12:24:11.055Z,101146.91
2022-12-16T12:27:02.610Z,101145.22
2022-12-16T12:29:52.389Z,101147.97
2022-12-16T12:32:44.092Z,101153.44
2022-12-16T12:35:36.264Z,101149.09
2022-12-16T12:38:26.499Z,101157.19
2022-12-16T12:41:16.884Z,101155.50
2022-12-16T12:44:09.189Z,101157.31
2022-12-16T12:46:58.981Z,101153.00
2022-12-16T12:49:47.601Z,101156.59
2022-12-16T12:52:37.479Z,101164.78
2022-12-16T12:55:27.906Z,101169.28
2022-12-16T12:58:10.463Z,101169.41
2022-12-16T13:01:01.249Z,101180.16
2022-12-16T13:03:51.177Z,101175.78
2022-12-16T13:06:36.610Z,101183.84
2022-12-16T13:09:22.139Z,101177.63
2022-12-16T13:12:26.634Z,101182.13
2022-12-16T13:15:12.750Z,101181.31
2022-12-16T13:18:16.799Z,101183.13
2022-12-16T13:21:03.330Z,101184.13
2022-12-16T13:23:50.204Z,101183.25
2022-12-16T13:26:36.464Z,101185.03
2022-12-16T13:29:36.135Z,101185.97
2022-12-16T13:32:23.417Z,101186.03
2022-12-16T13:35:17.884Z,101194.09
2022-12-16T13:38:11.622Z,101194.09
2022-12-16T13:41:12.066Z,101200.47
2022-12-16T13:44:03.264Z,101205.84
2022-12-16T13:46:58.046Z,101206.78
2022-12-16T13:49:58.415Z,101207.72
2022-12-16T13:52:50.165Z,101206.88
2022-12-16T13:55:38.257Z,101207.75
2022-12-16T13:58:26.959Z,101213.19
2022-12-16T14:01:20.366Z,101216.78
2022-12-16T14:04:06.912Z,101223.06
2022-12-16T14:06:53.347Z,101231.19
2022-12-16T14:09:45.365Z,101231.19
2022-12-16T14:12:38.209Z,101239.25
2022-12-16T14:15:25.952Z,101246.44
2022-12-16T14:18:14.857Z,101242.00
2022-12-16T14:21:06.216Z,101249.19
2022-12-16T14:23:57.629Z,101255.44
2022-12-16T14:26:44.050Z,101251.84
2022-12-16T14:29:36.948Z,101257.22
2022-12-16T14:32:36.421Z,101256.34
2022-12-16T14:35:21.570Z,101257.28
2022-12-16T14:38:06.941Z,101259.09
2022-12-16T14:40:52.248Z,101262.69
2022-12-16T14:43:39.094Z,101265.38
2022-12-16T14:46:37.064Z,101272.56
2022-12-16T14:49:27.864Z,101280.63
2022-12-16T14:52:27.389Z,101283.31
2022-12-16T14:55:12.439Z,101287.81
2022-12-16T14:57:57.427Z,101286.94
2022-12-16T15:00:42.665Z,101298.59
2022-12-16T15:03:35.895Z,101290.56
2022-12-16T15:06:22.399Z,101299.50
2022-12-16T15:09:09.411Z,101308.50
2022-12-16T15:11:55.170Z,101317.41
2022-12-16T15:14:44.497Z,101323.69
2022-12-16T15:17:36.926Z,101320.06
2022-12-16T15:20:25.572Z,101330.81
2022-12-16T15:23:11.210Z,101327.25
2022-12-16T15:26:02.173Z,101324.50
2022-12-16T15:28:56.785Z,101337.91
2022-12-16T15:31:43.330Z,101332.53
2022-12-16T15:34:42.236Z,101337.91
2022-12-16T15:37:45.237Z,101342.41
2022-12-16T15:40:47.940Z,101342.41
2022-12-16T15:43:41.627Z,101351.38
2022-12-16T15:46:34.495Z,101354.03
2022-12-16T15:49:25.093Z,101356.72
2022-12-16T15:52:10.588Z,101370.16
2022-12-16T15:55:08.171Z,101367.47
2022-12-16T15:57:54.296Z,101372.84
2022-12-16T16:00:54.250Z,101371.03
2022-12-16T16:03:41.932Z,101373.72
2022-12-16T16:06:34.437Z,101385.34
2022-12-16T16:09:19.609Z,101390.72
2022-12-16T16:12:04.683Z,101388.94
2022-12-16T16:14:49.544Z,101393.41
2022-12-16T16:17:40.620Z,101394.31
2022-12-16T16:20:32.254Z,101398.78
2022-12-16T16:23:18.208Z,101402.38
2022-12-16T16:26:04.302Z,101405.97
2022-12-16T16:28:49.581Z,101402.41
2022-12-16T16:31:34.624Z,101416.72
2022-12-16T16:34:23.614Z,101422.97
2022-12-16T16:37:11.014Z,101424.75
2022-12-16T16:39:56.664Z,101430.13
2022-12-16T16:42:42.000Z,101438.16
2022-12-16T16:45:27.704Z,101439.94
2022-12-16T16:48:19.641Z,101440.84
2022-12-16T16:51:06.522Z,101442.56
2022-12-16T16:53:51.452Z,101447.00
2022-12-16T16:56:39.378Z,101451.50
2022-12-16T16:59:24.469Z,101454.19
2022-12-16T17:02:09.500Z,101451.50
2022-12-16T17:04:55.082Z,101463.13
2022-12-16T17:07:41.673Z,101463.13
2022-12-16T17:10:27.152Z,101470.31
2022-12-16T17:13:12.524Z,101465.81
2022-12-16T17:15:58.066Z,101470.31
2022-12-16T17:18:47.772Z,101474.81
2022-12-16T17:21:35.706Z,101480.19
2022-12-16T17:24:22.369Z,101484.63
2022-12-16T17:27:22.045Z,101490.00
2022-12-16T17:30:06.981Z,101488.22
2022-12-16T17:32:52.197Z,101493.59
2022-12-16T17:35:37.617Z,101501.59
2022-12-16T17:38:22.698Z,101499.84
2022-12-16T17:41:13.813Z,101501.59
2022-12-16T17:43:59.298Z,101504.31
2022-12-16T17:46:44.740Z,101506.06
2022-12-16T17:49:30.139Z,101514.13
2022-12-16T17:52:15.562Z,101513.25
2022-12-16T17:55:09.221Z,101523.06
2022-12-16T17:57:55.747Z,101530.22
2022-12-16T18:00:41.099Z,101531.09
2022-12-16T18:03:26.224Z,101527.53
2022-12-16T18:06:14.514Z,101532.88
2022-12-16T18:09:08.110Z,101534.66
2022-12-16T18:11:49.700Z,101531.97
2022-12-16T18:14:36.183Z,101535.47
2022-12-16T18:17:21.396Z,101531.91
2022-12-16T18:20:06.502Z,101532.78
2022-12-16T18:22:51.683Z,101531.91
2022-12-16T18:25:37.403Z,101539.03
2022-12-16T18:28:23.142Z,101546.22
2022-12-16T18:31:10.066Z,101535.47
2022-12-16T18:33:55.018Z,101532.78
2022-12-16T18:36:40.276Z,101543.53
2022-12-16T18:39:25.495Z,101550.72
2022-12-16T18:42:10.667Z,101555.19
2022-12-16T18:45:00.810Z,101552.50
2022-12-16T18:47:47.135Z,101555.13
2022-12-16T18:50:37.463Z,101555.13
2022-12-16T18:53:22.873Z,101555.13
2022-12-16T18:56:16.883Z,101555.09
2022-12-16T18:59:02.289Z,101566.78
2022-12-16T19:01:47.776Z,101566.78
2022-12-16T19:04:42.770Z,101584.66
2022-12-16T19:07:29.094Z,101575.72
2022-12-16T19:10:16.839Z,101572.19
2022-12-16T19:13:07.567Z,101575.72
2022-12-16T19:15:52.776Z,101590.09
2022-12-16T19:18:38.040Z,101593.66
2022-12-16T19:21:24.439Z,101584.72
2022-12-16T19:24:09.679Z,101599.97
2022-12-16T19:27:00.073Z,101599.97
2022-12-16T19:29:45.244Z,101608.03
2022-12-16T19:32:30.618Z,101613.41
2022-12-16T19:35:15.873Z,101611.63
2022-12-16T19:38:02.456Z,101617.94
2022-12-16T19:40:47.541Z,101618.81
2022-12-16T19:43:32.800Z,101625.06
2022-12-16T19:46:23.579Z,101622.38
2022-12-16T19:49:08.887Z,101626.88
2022-12-16T19:51:53.926Z,101628.66
2022-12-16T19:54:43.235Z,101634.03
2022-12-16T19:57:28.351Z,101635.78
2022-12-16T20:00:13.691Z,101640.28
2022-12-16T20:02:59.078Z,101648.34
2022-12-16T20:05:44.641Z,101643.88
2022-12-16T20:08:31.442Z,101650.16
2022-12-16T20:11:22.111Z,101648.38
2022-12-16T20:14:10.013Z,101648.44
2022-12-16T20:16:55.366Z,101654.75
2022-12-16T20:19:42.457Z,101660.19
2022-12-16T20:22:27.725Z,101659.31
2022-12-16T20:25:12.907Z,101654.91
2022-12-16T20:27:59.723Z,101664.81
2022-12-16T20:30:44.848Z,101667.56
2022-12-16T20:34:01.223Z,101660.47
2022-12-16T20:36:48.344Z,101663.19
2022-12-16T20:39:34.021Z,101665.94
2022-12-16T20:42:19.213Z,101659.72
2022-12-16T20:45:06.048Z,101660.63
2022-12-16T20:47:51.559Z,101667.81
2022-12-16T20:50:36.929Z,101668.72
2022-12-16T20:53:22.213Z,101672.34
2022-12-16T20:56:07.712Z,101675.94
2022-12-16T20:58:56.203Z,101684.06
2022-12-16T21:02:22.269Z,101692.13
2022-12-16T21:05:04.628Z,101702.00
2022-12-16T21:07:49.991Z,101695.75
2022-12-16T21:10:35.245Z,101701.13
2022-12-16T21:13:32.412Z,101704.72
2022-12-16T21:16:18.307Z,101710.97
2022-12-16T21:19:05.466Z,101712.78
2022-12-16T21:21:51.723Z,101711.03
2022-12-16T21:24:42.440Z,101712.78
2022-12-16T21:27:47.470Z,101719.97
2022-12-16T21:30:33.179Z,101725.34
2022-12-16T21:33:33.039Z,101732.50
2022-12-16T21:36:19.902Z,101734.28
2022-12-16T21:39:05.829Z,101745.00
2022-12-16T21:41:51.214Z,101748.56
2022-12-16T21:44:37.169Z,101754.75
2022-12-16T21:47:31.391Z,101755.66
2022-12-16T21:50:16.549Z,101760.09
2022-12-16T21:53:19.787Z,101761.88
2022-12-16T21:56:12.016Z,101761.84
2022-12-16T21:58:57.461Z,101765.38
2022-12-16T22:01:45.136Z,101774.28
2022-12-16T22:04:30.472Z,101777.84
2022-12-16T22:07:15.454Z,101775.16
2022-12-16T22:10:02.891Z,101776.88
2022-12-16T22:12:48.213Z,101776.88
2022-12-16T22:15:33.782Z,101782.25
2022-12-16T22:18:19.097Z,101784.03
2022-12-16T22:21:13.041Z,101783.09
2022-12-16T22:23:58.374Z,101778.66
2022-12-16T22:26:45.264Z,101781.34
2022-12-16T22:29:31.859Z,101784.91
2022-12-16T22:32:17.358Z,101790.31
2022-12-16T22:35:02.648Z,101800.19
2022-12-16T22:37:47.776Z,101810.09
2022-12-16T22:40:33.203Z,101807.41
2022-12-16T22:43:20.035Z,101812.78
2022-12-16T22:46:05.513Z,101815.47
2022-12-16T22:48:47.254Z,101817.25
2022-12-16T22:51:33.326Z,101817.25
2022-12-16T22:54:18.951Z,101819.94
2022-12-16T22:57:04.293Z,101817.25
2022-12-16T22:59:51.765Z,101820.84
2022-12-16T23:02:37.110Z,101815.47
2022-12-16T23:05:27.342Z,101828.88
2022-12-16T23:08:13.257Z,101828.91
2022-12-16T23:11:13.112Z,101831.56
2022-12-16T23:13:58.250Z,101832.47
2022-12-16T23:16:45.249Z,101828.91
2022-12-16T23:19:30.309Z,101834.28
2022-12-16T23:22:15.713Z,101840.56
2022-12-16T23:25:00.921Z,101836.09
2022-12-16T23:27:46.517Z,101837.06
2022-12-16T23:30:31.939Z,101837.94
2022-12-16T23:33:18.865Z,101844.22
2022-12-16T23:36:03.959Z,101845.13
2022-12-16T23:38:49.310Z,101846.94
2022-12-16T23:41:34.601Z,101850.53
2022-12-16T23:44:19.928Z,101843.34
2022-12-16T23:47:05.145Z,101852.31
2022-12-16T23:49:52.001Z,101852.31
2022-12-16T23:52:37.418Z,101852.31
2022-12-16T23:55:22.659Z,101854.09
2022-12-16T23:58:15.594Z,101846.03
